Time;durP1;ratioP1;P1;durP2;ratioP2;P2;SDS_P1;SDS_P2;PMS_P1;PMS_P2;Temp;Humidity;BMP_temperature;BMP_pressure;BME280_temperature;BME280_humidity;BME280_pressure;Samples;Min_cycle;Max_cycle;Signal;HPM_P1;HPM_P2
2023/10/07 00:00:59;;;;;;;9.30;5.20;;;;;;;6.51;69.39;100889.02;108111;1254;60455;-68
2023/10/07 00:03:26;;;;;;;8.30;4.50;;;;;;;6.52;69.37;100884.27;108156;1253;60403;-69
2023/10/07 00:06:00;;;;;;;9.80;5.10;;;;;;;6.54;69.28;100882.09;108331;1253;73549;-68
2023/10/07 00:08:28;;;;;;;10.40;5.20;;;;;;;6.57;69.20;100882.75;108290;1253;71622;-69
2023/10/07 00:10:59;;;;;;;11.00;5.50;;;;;;;6.61;69.19;100881.33;108190;1253;72729;-70
2023/10/07 00:13:30;;;;;;;8.90;5.10;;;;;;;6.66;69.18;100879.71;108197;1254;60442;-68
2023/10/07 00:15:58;;;;;;;10.20;5.10;;;;;;;6.68;69.26;100874.74;108212;1257;60421;-70
2023/10/07 00:18:26;;;;;;;9.20;5.10;;;;;;;6.68;69.29;100863.38;108267;1253;73713;-69
2023/10/07 00:20:56;;;;;;;9.30;5.10;;;;;;;6.72;69.48;100851.33;108222;1253;72570;-69
2023/10/07 00:23:26;;;;;;;9.90;5.20;;;;;;;6.75;69.45;100845.67;108219;1253;71365;-70
2023/10/07 00:25:54;;;;;;;10.10;4.70;;;;;;;6.80;69.46;100838.61;108080;1253;61342;-68
2023/10/07 00:30:55;;;;;;;10.20;4.70;;;;;;;6.90;69.39;100835.80;108103;1254;73888;-70
2023/10/07 00:33:22;;;;;;;8.40;4.30;;;;;;;6.93;69.19;100827.40;108191;1253;71707;-68
2023/10/07 00:35:51;;;;;;;10.30;5.60;;;;;;;6.95;69.28;100823.63;108134;1257;72514;-68
2023/10/07 00:38:22;;;;;;;7.90;4.50;;;;;;;6.92;69.15;100823.94;108089;1252;62365;-68
2023/10/07 00:40:53;;;;;;;7.80;4.60;;;;;;;6.92;69.26;100816.88;108322;1253;60173;-70
2023/10/07 00:43:30;;;;;;;9.80;4.70;;;;;;;6.94;69.11;100809.56;108247;1256;73827;-70
2023/10/07 00:46:10;;;;;;;10.00;5.00;;;;;;;6.96;69.11;100802.73;108101;1253;72693;-70
2023/10/07 00:51:24;;;;;;;10.60;4.70;;;;;;;7.00;69.16;100786.27;108156;1254;61744;-70
2023/10/07 00:54:17;;;;;;;8.50;4.40;;;;;;;7.02;69.18;100782.17;108176;1254;61408;-68
2023/10/07 00:56:42;;;;;;;8.30;3.70;;;;;;;7.06;69.22;100780.20;108152;1253;71525;-70
2023/10/07 00:59:10;;;;;;;7.60;4.10;;;;;;;7.10;69.21;100780.11;108366;1254;72445;-68
2023/10/07 01:01:37;;;;;;;9.40;4.90;;;;;;;7.14;69.19;100777.93;108186;1253;72732;-70
2023/10/07 01:04:06;;;;;;;7.60;4.40;;;;;;;7.18;69.26;100778.33;108185;1253;60413;-68
2023/10/07 01:06:38;;;;;;;10.00;4.60;;;;;;;7.24;69.22;100774.59;108204;1253;60305;-71
2023/10/07 01:09:14;;;;;;;7.90;4.20;;;;;;;7.31;69.14;100767.56;108189;1253;72725;-70
2023/10/07 01:11:45;;;;;;;10.10;4.80;;;;;;;7.39;69.04;100761.38;108222;1253;71739;-69
2023/10/07 01:14:12;;;;;;;8.90;4.40;;;;;;;7.48;68.96;100756.11;108142;1253;72732;-68
2023/10/07 01:16:43;;;;;;;6.90;3.70;;;;;;;7.57;68.83;100749.55;108098;1253;61371;-70
2023/10/07 01:21:53;;;;;;;6.50;3.60;;;;;;;7.75;68.39;100747.34;108171;1253;74063;-69
2023/10/07 01:24:33;;;;;;;7.40;3.70;;;;;;;7.85;68.12;100742.88;108263;1253;71245;-68
2023/10/07 01:27:17;;;;;;;7.40;3.80;;;;;;;7.94;67.90;100737.58;108137;1253;73126;-70
2023/10/07 01:29:48;;;;;;;8.00;4.10;;;;;;;8.02;67.51;100726.56;108177;1253;59350;-71
2023/10/07 01:32:19;;;;;;;7.80;3.70;;;;;;;8.07;67.16;100719.86;108108;1253;60435;-69
2023/10/07 01:34:51;;;;;;;7.80;3.80;;;;;;;8.11;66.89;100711.21;107891;1254;223448;-68
2023/10/07 01:37:21;;;;;;;7.00;4.00;;;;;;;8.15;66.58;100704.11;108485;1253;70504;-68
2023/10/07 01:39:55;;;;;;;8.60;4.00;;;;;;;8.17;66.28;100700.32;108107;1253;72439;-70
2023/10/07 01:42:54;;;;;;;10.20;3.70;;;;;;;8.20;66.02;100699.89;108057;1253;62338;-69
2023/10/07 01:45:20;;;;;;;8.30;4.30;;;;;;;8.26;65.85;100703.30;108103;1253;60337;-69
2023/10/07 01:47:55;;;;;;;9.30;4.30;;;;;;;8.31;65.75;100706.05;108208;1253;72407;-70
2023/10/07 01:50:24;;;;;;;10.50;4.50;;;;;;;8.37;65.56;100690.62;108150;1253;71712;-69
2023/10/07 01:52:55;;;;;;;9.00;3.90;;;;;;;8.44;65.40;100684.91;108223;1253;72746;-69
2023/10/07 01:55:27;;;;;;;8.20;4.00;;;;;;;8.50;65.23;100677.58;108250;1253;61949;-70
2023/10/07 01:57:54;;;;;;;7.60;4.10;;;;;;;8.55;65.10;100665.05;108221;1253;60058;-69
2023/10/07 02:03:25;;;;;;;7.90;4.00;;;;;;;8.63;64.60;100634.88;107749;1259;72593;-68
2023/10/07 02:05:52;;;;;;;8.80;4.50;;;;;;;8.64;64.49;100617.90;108020;1253;72539;-68
2023/10/07 02:08:23;;;;;;;9.60;4.30;;;;;;;8.63;64.42;100607.66;108172;1253;61848;-69
2023/10/07 02:10:58;;;;;;;7.50;3.90;;;;;;;8.62;64.22;100612.61;108167;1253;60399;-69
2023/10/07 02:13:29;;;;;;;6.60;4.00;;;;;;;8.60;64.31;100611.56;108325;1253;72658;-66
2023/10/07 02:15:56;;;;;;;8.70;4.30;;;;;;;8.59;64.28;100606.21;108078;1253;72800;-68
2023/10/07 02:18:26;;;;;;;8.10;4.30;;;;;;;8.57;64.41;100600.92;108294;1254;72546;-67
2023/10/07 02:21:06;;;;;;;8.00;4.00;;;;;;;8.57;64.54;100604.38;108205;1253;60505;-68
2023/10/07 02:23:37;;;;;;;7.70;4.30;;;;;;;8.58;64.56;100604.44;108179;1253;60303;-68
2023/10/07 02:26:14;;;;;;;7.40;4.40;;;;;;;8.59;64.59;100607.86;108093;1253;73889;-69
2023/10/07 02:28:42;;;;;;;10.60;4.90;;;;;;;8.59;64.69;100616.88;108141;1258;72848;-68
2023/10/07 02:31:15;;;;;;;11.30;4.70;;;;;;;8.58;64.80;100615.52;108218;1253;71173;-69
2023/10/07 02:33:45;;;;;;;8.70;4.40;;;;;;;8.59;64.81;100610.85;108209;1256;61984;-71
2023/10/07 02:36:27;;;;;;;8.60;4.80;;;;;;;8.59;64.84;100608.56;108145;1253;60248;-68
2023/10/07 02:39:18;;;;;;;7.20;4.50;;;;;;;8.58;64.87;100609.14;108092;1252;73675;-69
2023/10/07 02:41:49;;;;;;;10.50;4.50;;;;;;;8.58;65.03;100598.70;108141;1253;72617;-70
2023/10/07 02:44:26;;;;;;;8.70;4.50;;;;;;;8.57;65.13;100591.44;108130;1253;72688;-69
2023/10/07 02:46:53;;;;;;;8.90;4.60;;;;;;;8.56;65.29;100589.50;108082;1252;62022;-69
2023/10/07 02:49:21;;;;;;;8.40;4.20;;;;;;;8.55;65.37;100579.27;108024;1253;60368;-69
2023/10/07 02:51:56;;;;;;;9.10;4.80;;;;;;;8.57;65.41;100568.75;108171;1253;73559;-69
2023/10/07 02:54:31;;;;;;;8.70;4.20;;;;;;;8.58;65.57;100567.80;108182;1253;71543;-69
2023/10/07 02:59:30;;;;;;;9.30;4.80;;;;;;;8.58;65.70;100569.09;108002;1253;61703;-70
2023/10/07 03:02:12;;;;;;;9.80;5.00;;;;;;;8.59;65.80;100566.23;108087;1253;60412;-68
2023/10/07 03:04:42;;;;;;;;;;;;;;;8.62;65.80;100555.19;108096;1253;73914;-68
2023/10/07 03:07:16;;;;;;;11.90;5.60;;;;;;;8.63;65.87;100546.53;108178;1253;72756;-68
2023/10/07 03:09:51;;;;;;;10.00;5.00;;;;;;;8.65;65.98;100538.96;108125;1253;72673;-69
2023/10/07 03:12:27;;;;;;;8.50;5.20;;;;;;;8.68;66.11;100529.13;108121;1253;62249;-67
2023/10/07 03:15:00;;;;;;;10.00;5.40;;;;;;;8.72;66.25;100515.92;108203;1253;60287;-70
2023/10/07 03:17:39;;;;;;;9.90;5.00;;;;;;;8.76;66.27;100512.25;108170;1253;73654;-70
2023/10/07 03:28:30;;;;;;;8.00;4.80;;;;;;;8.97;66.72;100501.98;107803;1261;60317;-69
2023/10/07 03:30:57;;;;;;;8.60;4.70;;;;;;;9.02;66.78;100499.59;107949;1253;73739;-69
2023/10/07 03:33:44;;;;;;;11.60;5.50;;;;;;;9.07;66.75;100489.05;108152;1253;72693;-69
2023/10/07 03:39:09;;;;;;;11.00;5.20;;;;;;;9.19;66.70;100467.86;108144;1253;61020;-70
2023/10/07 03:41:41;;;;;;;8.70;5.20;;;;;;;9.27;66.63;100464.11;108112;1254;60302;-68
2023/10/07 03:44:08;;;;;;;9.70;5.00;;;;;;;9.31;66.59;100459.11;108333;1253;73782;-70
2023/10/07 03:46:36;;;;;;;10.50;5.60;;;;;;;9.35;66.49;100455.09;108174;1253;72842;-70
2023/10/07 03:49:06;;;;;;;9.60;5.80;;;;;;;9.40;66.54;100453.12;108131;1253;72424;-68
2023/10/07 03:51:35;;;;;;;10.70;5.20;;;;;;;9.44;66.50;100451.34;108002;1253;62063;-68
2023/10/07 03:54:11;;;;;;;9.60;5.10;;;;;;;9.48;66.46;100436.88;108132;1253;60355;-69
2023/10/07 03:56:39;;;;;;;9.90;5.40;;;;;;;9.53;66.46;100433.08;108148;1253;73625;-69
2023/10/07 03:59:05;;;;;;;10.80;5.20;;;;;;;9.58;66.53;100427.95;108145;1253;71484;-69
2023/10/07 04:01:33;;;;;;;11.30;5.70;;;;;;;9.62;66.49;100424.80;108181;1257;72930;-69
2023/10/07 04:03:59;;;;;;;9.00;5.80;;;;;;;9.67;66.49;100420.56;108192;1253;61667;-69
2023/10/07 04:06:34;;;;;;;10.60;5.40;;;;;;;9.70;66.35;100419.09;108158;1253;60309;-69
2023/10/07 04:09:07;;;;;;;8.30;5.20;;;;;;;9.73;66.40;100408.88;108363;1253;76608;-68
2023/10/07 04:11:39;;;;;;;8.90;5.20;;;;;;;9.76;66.21;100399.73;108213;1253;72733;-70
2023/10/07 04:14:27;;;;;;;8.90;5.50;;;;;;;9.78;66.11;100392.11;108185;1253;72426;-69
2023/10/07 04:16:58;;;;;;;9.30;5.00;;;;;;;9.78;66.04;100390.05;108185;1253;61723;-67
2023/10/07 04:21:54;;;;;;;11.40;5.90;;;;;;;9.81;65.96;100380.34;108114;1253;73717;-68
2023/10/07 04:24:28;;;;;;;9.20;5.40;;;;;;;9.82;66.00;100372.35;108181;1253;72720;-69
2023/10/07 04:27:01;;;;;;;10.10;5.40;;;;;;;9.83;65.90;100366.55;108160;1253;73980;-70
2023/10/07 04:29:30;;;;;;;11.60;5.90;;;;;;;9.85;65.94;100361.22;108082;1253;61782;-68
2023/10/07 04:32:37;;;;;;;9.70;5.30;;;;;;;9.88;65.86;100351.80;108172;1253;60322;-70
2023/10/07 04:35:30;;;;;;;9.10;5.20;;;;;;;9.92;65.98;100339.23;108178;1253;72568;-72
2023/10/07 04:37:47;;;;;;;10.70;5.10;;;;;;;9.95;65.91;100336.96;107999;1252;72723;-69
2023/10/07 04:43:25;;;;;;;10.80;5.20;;;;;;;10.05;65.76;100323.93;108112;1252;62026;-69
2023/10/07 04:45:37;;;;;;;13.20;5.40;;;;;;;10.12;65.69;100317.73;108026;1253;60470;-69
2023/10/07 04:51:04;;;;;;;8.80;5.30;;;;;;;10.23;65.46;100305.08;107858;1253;72576;-68
2023/10/07 04:53:38;;;;;;;10.80;5.40;;;;;;;10.29;65.40;100300.96;108173;1253;72958;-68
2023/10/07 04:56:06;;;;;;;8.00;4.40;;;;;;;10.35;65.23;100299.60;108185;1253;62027;-69
2023/10/07 04:58:33;;;;;;;10.00;5.10;;;;;;;10.41;64.97;100299.95;108161;1257;60527;-69
2023/10/07 05:01:22;;;;;;;7.60;4.60;;;;;;;10.46;64.87;100288.20;108204;1253;72878;-70
2023/10/07 05:03:55;;;;;;;7.20;4.60;;;;;;;10.53;64.80;100276.59;108226;1253;71312;-68
2023/10/07 05:06:22;;;;;;;9.30;4.60;;;;;;;10.62;64.67;100271.11;108190;1253;71116;-67
2023/10/07 05:08:50;;;;;;;8.00;4.50;;;;;;;10.70;64.27;100269.10;108206;1253;61826;-68
2023/10/07 05:11:19;;;;;;;7.00;4.30;;;;;;;10.77;64.11;100263.92;108220;1253;61040;-68
2023/10/07 05:13:47;;;;;;;7.30;4.10;;;;;;;10.86;63.89;100254.96;108169;1253;74885;-68
2023/10/07 05:16:14;;;;;;;9.30;4.70;;;;;;;10.94;63.59;100250.69;108136;1253;71632;-68
2023/10/07 05:18:41;;;;;;;7.00;4.00;;;;;;;11.04;63.25;100246.04;108139;1253;71298;-69
2023/10/07 05:21:08;;;;;;;8.30;4.80;;;;;;;11.14;62.94;100245.02;108201;1253;62032;-69
2023/10/07 05:23:36;;;;;;;7.80;4.10;;;;;;;11.23;62.71;100245.29;108184;1253;60553;-68
2023/10/07 05:26:03;;;;;;;7.20;4.00;;;;;;;11.33;62.58;100240.14;108177;1253;74115;-69
2023/10/07 05:28:32;;;;;;;6.50;3.90;;;;;;;11.43;62.33;100234.67;108226;1253;71678;-67
2023/10/07 05:31:03;;;;;;;7.90;3.90;;;;;;;11.53;62.00;100231.13;108220;1253;72734;-68
2023/10/07 05:33:34;;;;;;;10.00;4.80;;;;;;;11.65;61.89;100217.83;108120;1253;60380;-66
2023/10/07 05:36:14;;;;;;;8.00;4.40;;;;;;;11.75;61.51;100209.61;108072;1253;60415;-69
2023/10/07 05:38:44;;;;;;;8.00;4.80;;;;;;;11.86;61.16;100209.01;108111;1253;73672;-68
2023/10/07 05:41:14;;;;;;;7.70;4.30;;;;;;;11.96;61.06;100201.10;108214;1253;71570;-71
2023/10/07 05:43:43;;;;;;;7.70;4.10;;;;;;;12.05;60.86;100197.48;108240;1253;72819;-68
2023/10/07 05:46:13;;;;;;;8.80;4.30;;;;;;;12.13;60.55;100187.41;108262;1253;61854;-69
2023/10/07 05:48:40;;;;;;;10.60;4.90;;;;;;;12.19;60.28;100178.23;108236;1253;60209;-68
2023/10/07 05:51:09;;;;;;;10.80;4.80;;;;;;;12.21;59.90;100174.27;108137;1253;72704;-68
2023/10/07 05:53:39;;;;;;;8.70;4.60;;;;;;;12.22;59.88;100174.58;108361;1253;72636;-67
2023/10/07 05:56:07;;;;;;;9.20;5.00;;;;;;;12.21;59.87;100171.31;108266;1253;72738;-67
2023/10/07 05:58:35;;;;;;;11.40;5.30;;;;;;;12.21;59.96;100158.72;108251;1253;60294;-69
2023/10/07 06:01:06;;;;;;;8.90;4.80;;;;;;;12.20;60.12;100155.26;108190;1257;60336;-68
2023/10/07 06:03:33;;;;;;;9.10;4.70;;;;;;;12.18;60.05;100140.91;108058;1253;73951;-67
2023/10/07 06:06:01;;;;;;;8.00;4.60;;;;;;;12.17;60.13;100132.08;108245;1253;72773;-68
2023/10/07 06:08:28;;;;;;;8.00;4.70;;;;;;;12.20;60.55;100127.67;108155;1253;72541;-68
2023/10/07 06:10:56;;;;;;;10.10;5.20;;;;;;;12.20;60.84;100122.74;108204;1253;61806;-67
2023/10/07 06:13:26;;;;;;;9.40;4.90;;;;;;;12.18;61.08;100123.45;108202;1256;60343;-68
2023/10/07 06:15:55;;;;;;;10.00;4.90;;;;;;;12.15;61.48;100121.39;108189;1257;73670;-69
2023/10/07 06:18:23;;;;;;;8.00;4.70;;;;;;;12.11;62.14;100118.30;108191;1253;71679;-69
2023/10/07 06:20:51;;;;;;;9.10;5.10;;;;;;;12.05;62.54;100121.67;108168;1257;72637;-69
2023/10/07 06:23:24;;;;;;;8.10;5.10;;;;;;;11.99;63.22;100116.56;108139;1253;63054;-69
2023/10/07 06:25:51;;;;;;;10.60;4.80;;;;;;;11.93;63.63;100113.69;108107;1253;60236;-69
2023/10/07 06:31:12;;;;;;;11.30;4.90;;;;;;;11.89;64.71;100106.45;108212;1253;72541;-70
2023/10/07 06:33:43;;;;;;;14.20;7.10;;;;;;;11.85;64.98;100094.27;108161;1253;73934;-67
2023/10/07 06:36:12;;;;;;;17.70;10.20;;;;;;;11.85;65.23;100079.23;108197;1253;61992;-71
2023/10/07 06:38:52;;;;;;;15.20;9.20;;;;;;;11.86;65.39;100076.92;108238;1253;60336;-69
2023/10/07 06:41:19;;;;;;;14.70;9.40;;;;;;;11.86;65.72;100075.90;108249;1253;72566;-70
2023/10/07 06:43:50;;;;;;;15.90;10.50;;;;;;;11.86;66.05;100070.60;108211;1253;72677;-70
2023/10/07 06:46:20;;;;;;;14.70;8.70;;;;;;;11.87;66.41;100069.59;108193;1253;72716;-70
2023/10/07 06:48:48;;;;;;;9.80;6.60;;;;;;;11.87;66.43;100062.35;108187;1253;61999;-71
2023/10/07 06:51:15;;;;;;;14.70;6.70;;;;;;;11.87;66.63;100069.68;108224;1253;60295;-70
2023/10/07 06:53:43;;;;;;;10.30;6.70;;;;;;;11.88;67.02;100075.25;108117;1255;73701;-70
2023/10/07 06:56:20;;;;;;;9.50;5.50;;;;;;;11.88;67.11;100069.95;108159;1253;72771;-71
2023/10/07 06:58:54;;;;;;;11.60;5.90;;;;;;;11.90;67.29;100070.90;108138;1253;71428;-71
2023/10/07 07:04:11;;;;;;;10.50;5.30;;;;;;;12.00;67.65;100067.52;108153;1253;60527;-70
2023/10/07 07:06:42;;;;;;;10.80;4.90;;;;;;;12.05;67.69;100067.32;108372;1253;72751;-71
2023/10/07 07:12:03;;;;;;;7.80;5.10;;;;;;;12.09;67.77;100059.85;108151;1256;72493;-69
2023/10/07 07:14:30;;;;;;;8.10;5.00;;;;;;;12.10;67.73;100061.45;108133;1253;61910;-71
2023/10/07 07:16:57;;;;;;;10.30;5.10;;;;;;;12.13;67.89;100056.45;108099;1253;59443;-72
2023/10/07 07:19:24;;;;;;;10.90;5.60;;;;;;;12.17;67.95;100058.95;108155;1253;73796;-71
2023/10/07 07:21:51;;;;;;;10.60;5.10;;;;;;;12.19;68.04;100049.76;108191;1253;72135;-70
2023/10/07 07:24:22;;;;;;;10.20;5.20;;;;;;;12.21;68.08;100049.44;108079;1253;70491;-71
2023/10/07 07:26:52;;;;;;;11.20;4.60;;;;;;;12.23;68.21;100041.71;108085;1253;61665;-70
2023/10/07 07:29:23;;;;;;;8.10;5.10;;;;;;;12.25;67.87;100040.30;108198;1253;60708;-71
2023/10/07 07:31:50;;;;;;;10.00;4.70;;;;;;;12.29;68.13;100031.10;108141;1253;73902;-70
2023/10/07 07:34:26;;;;;;;10.90;4.60;;;;;;;12.36;68.21;100016.75;108160;1253;72786;-70
2023/10/07 07:37:02;;;;;;;7.90;4.60;;;;;;;12.42;67.94;99992.27;108185;1253;72341;-68
2023/10/07 07:39:33;;;;;;;9.40;4.60;;;;;;;12.44;67.86;99985.23;108091;1253;62202;-69
2023/10/07 07:42:15;;;;;;;8.70;4.20;;;;;;;12.45;67.85;99978.95;108127;1255;60601;-71
2023/10/07 07:44:55;;;;;;;7.10;4.10;;;;;;;12.48;67.89;99975.50;108133;1253;72564;-70
2023/10/07 07:47:23;;;;;;;8.30;3.80;;;;;;;12.48;68.33;99977.11;108132;1253;72740;-71
2023/10/07 07:49:51;;;;;;;7.80;3.90;;;;;;;12.49;68.55;99971.52;108122;1253;72798;-70
2023/10/07 07:52:19;;;;;;;9.80;4.30;;;;;;;12.51;68.77;99970.91;108068;1253;61797;-71
2023/10/07 07:54:46;;;;;;;7.10;3.60;;;;;;;12.48;68.84;99967.45;108170;1253;60426;-72
2023/10/07 07:57:16;;;;;;;8.60;3.60;;;;;;;12.49;68.99;99963.55;108204;1253;73134;-71
2023/10/07 07:59:43;;;;;;;8.10;4.10;;;;;;;12.51;69.16;99961.27;108144;1253;72483;-73
2023/10/07 08:02:17;;;;;;;7.40;4.20;;;;;;;12.53;69.30;99966.55;108211;1253;71721;-73
2023/10/07 08:04:50;;;;;;;8.80;3.90;;;;;;;12.54;69.38;99970.87;108149;1253;60536;-73
2023/10/07 08:10:03;;;;;;;8.20;4.00;;;;;;;12.52;69.86;99969.08;108162;1253;75156;-74
2023/10/07 08:12:39;;;;;;;10.60;4.70;;;;;;;12.50;70.29;99962.08;108167;1253;72700;-70
2023/10/07 08:17:43;;;;;;;8.50;3.90;;;;;;;12.48;71.13;99955.84;108184;1253;61901;-73
2023/10/07 08:20:12;;;;;;;8.60;3.90;;;;;;;12.44;71.65;99955.54;108143;1253;60002;-73
2023/10/07 08:22:45;;;;;;;9.10;4.10;;;;;;;12.40;72.08;99934.16;108121;1253;74036;-74
2023/10/07 08:25:46;;;;;;;9.20;3.90;;;;;;;12.38;72.35;99929.64;108109;1257;71601;-75
2023/10/07 08:28:23;;;;;;;7.60;3.70;;;;;;;12.39;72.80;99938.45;108166;1253;71599;-73
2023/10/07 08:30:53;;;;;;;10.80;4.10;;;;;;;12.39;73.09;99932.35;108098;1253;61866;-73
2023/10/07 08:33:23;;;;;;;7.60;4.40;;;;;;;12.41;73.50;99922.48;108184;1253;59194;-73
2023/10/07 08:35:51;;;;;;;7.10;3.90;;;;;;;12.44;73.58;99923.80;108205;1252;73317;-73
2023/10/07 08:38:38;;;;;;;9.20;3.70;;;;;;;12.47;73.79;99904.89;108213;1253;71299;-75
2023/10/07 08:41:07;;;;;;;7.60;4.20;;;;;;;12.52;74.15;99911.80;108151;1253;72538;-74
2023/10/07 08:43:43;;;;;;;7.50;4.20;;;;;;;12.55;74.08;99897.27;108165;1253;61913;-74
2023/10/07 08:46:12;;;;;;;7.50;3.40;;;;;;;12.57;74.21;99890.63;108066;1255;60328;-74
2023/10/07 08:48:42;;;;;;;11.00;3.80;;;;;;;12.61;74.15;99877.58;108242;1253;73848;-76
2023/10/07 08:51:14;;;;;;;6.80;3.80;;;;;;;12.65;74.23;99881.22;108196;1253;71747;-75
2023/10/07 08:53:42;;;;;;;9.60;3.90;;;;;;;12.66;74.02;99877.02;108111;1253;71269;-75
2023/10/07 08:56:09;;;;;;;6.40;3.70;;;;;;;12.69;73.98;99859.58;108209;1253;62062;-72
2023/10/07 08:58:41;;;;;;;6.60;3.70;;;;;;;12.72;73.92;99845.33;108149;1253;61082;-78
2023/10/07 09:01:17;;;;;;;8.20;4.10;;;;;;;12.75;73.95;99842.06;108217;1253;72731;-75
2023/10/07 09:03:48;;;;;;;8.00;3.90;;;;;;;12.77;73.61;99845.22;108194;1253;72666;-78
2023/10/07 09:06:16;;;;;;;6.30;3.60;;;;;;;12.76;73.40;99835.63;108023;1259;72511;-75
2023/10/07 09:08:45;;;;;;;7.10;4.20;;;;;;;12.78;73.51;99833.73;108118;1254;60781;-73
2023/10/07 09:11:23;;;;;;;7.90;3.80;;;;;;;12.80;73.34;99838.63;108149;1253;59315;-73
2023/10/07 09:13:50;;;;;;;8.10;4.00;;;;;;;12.84;73.14;99828.60;108170;1257;72658;-75
2023/10/07 09:16:21;;;;;;;7.90;3.60;;;;;;;12.88;72.87;99822.76;108190;1253;73051;-75
2023/10/07 09:18:55;;;;;;;6.40;3.40;;;;;;;12.95;72.58;99813.40;108154;1253;72413;-75
2023/10/07 09:21:22;;;;;;;7.00;3.50;;;;;;;13.04;72.49;99813.10;108171;1253;61791;-70
2023/10/07 09:23:51;;;;;;;10.20;4.00;;;;;;;13.12;71.75;99802.02;108147;1253;60137;-75
2023/10/07 09:26:21;;;;;;;6.90;3.70;;;;;;;13.24;71.09;99807.59;108282;1253;72510;-73
2023/10/07 09:28:58;;;;;;;5.90;3.30;;;;;;;13.37;70.80;99800.14;108220;1253;72424;-72
2023/10/07 09:31:26;;;;;;;8.50;4.20;;;;;;;13.47;70.51;99798.87;108282;1253;72360;-73
2023/10/07 09:33:55;;;;;;;7.20;3.80;;;;;;;13.53;69.78;99789.01;108260;1253;61669;-72
2023/10/07 09:41:43;;;;;;;8.50;3.70;;;;;;;13.81;68.19;99766.73;108155;1253;72743;-71
2023/10/07 09:44:28;;;;;;;6.00;3.40;;;;;;;13.92;67.79;99762.04;108213;1253;72749;-70
2023/10/07 09:47:02;;;;;;;10.00;4.30;;;;;;;14.02;67.07;99755.23;108226;1253;61811;-74
2023/10/07 09:49:30;;;;;;;7.00;3.30;;;;;;;14.10;66.49;99741.10;108205;1253;60377;-72
2023/10/07 09:52:15;;;;;;;8.00;4.70;;;;;;;14.21;65.54;99753.13;108205;1253;73536;-72
2023/10/07 09:54:47;;;;;;;8.00;3.90;;;;;;;14.34;64.83;99743.71;108250;1253;72524;-72
2023/10/07 09:57:42;;;;;;;7.70;3.80;;;;;;;14.46;64.46;99718.98;108212;1253;72814;-70
2023/10/07 10:00:38;;;;;;;6.50;3.80;;;;;;;14.55;64.05;99710.23;108153;1253;61997;-70
2023/10/07 10:03:30;;;;;;;9.60;4.00;;;;;;;14.61;63.39;99739.17;108233;1253;60330;-73
2023/10/07 10:06:09;;;;;;;6.50;3.90;;;;;;;14.60;63.38;99719.23;108102;1253;73722;-71
2023/10/07 10:08:59;;;;;;;8.30;4.30;;;;;;;14.61;63.57;99712.69;108107;1253;72702;-73
2023/10/07 10:14:28;;;;;;;10.10;4.50;;;;;;;14.68;63.55;99701.45;107878;1253;62298;-71
2023/10/07 10:16:59;;;;;;;8.60;4.10;;;;;;;14.74;63.35;99691.38;108080;1253;60519;-71
2023/10/07 10:19:49;;;;;;;8.80;4.40;;;;;;;14.80;63.17;99691.86;108118;1253;73676;-70
2023/10/07 10:22:24;;;;;;;7.20;4.20;;;;;;;14.87;62.71;99679.32;108125;1253;72502;-73
2023/10/07 10:24:54;;;;;;;9.20;4.30;;;;;;;14.94;62.61;99672.21;108182;1256;72824;-72
2023/10/07 10:27:21;;;;;;;9.00;4.20;;;;;;;15.03;62.39;99664.89;108145;1255;60964;-70
2023/10/07 10:29:52;;;;;;;9.50;4.30;;;;;;;15.13;62.16;99655.77;107993;1254;60336;-71
2023/10/07 10:32:29;;;;;;;7.30;3.90;;;;;;;15.25;61.76;99653.76;108157;1253;73665;-72
2023/10/07 10:35:01;;;;;;;9.70;4.30;;;;;;;15.36;61.38;99646.69;108224;1253;71277;-70
2023/10/07 10:37:30;;;;;;;11.10;4.50;;;;;;;15.45;60.54;99634.66;108104;1258;72671;-72
2023/10/07 10:40:05;;;;;;;7.50;4.30;;;;;;;15.54;60.12;99628.48;108027;1253;61676;-72
2023/10/07 10:42:42;;;;;;;7.80;4.20;;;;;;;15.63;59.86;99623.29;108289;1253;60325;-73
2023/10/07 10:45:20;;;;;;;8.40;4.10;;;;;;;15.73;59.14;99612.10;108226;1253;73676;-71
2023/10/07 10:47:51;;;;;;;8.90;4.10;;;;;;;15.85;58.34;99605.55;108263;1253;72550;-73
2023/10/07 10:50:23;;;;;;;;;;;;;;;15.97;57.41;99600.84;108203;1253;72784;-71
2023/10/07 10:52:51;;;;;;;6.80;3.80;;;;;;;16.07;56.99;99596.75;108306;1253;60425;-71
2023/10/07 10:55:18;;;;;;;8.50;4.20;;;;;;;16.16;56.90;99598.48;108187;1253;60307;-71
2023/10/07 10:57:45;;;;;;;9.20;4.20;;;;;;;16.26;56.73;99598.53;108179;1254;72690;-71
2023/10/07 11:00:22;;;;;;;8.40;3.80;;;;;;;16.36;56.15;99598.59;108178;1253;72686;-70
2023/10/07 11:02:50;;;;;;;7.90;3.80;;;;;;;16.47;55.79;99591.41;108192;1253;72393;-72
2023/10/07 11:05:17;;;;;;;6.20;3.30;;;;;;;16.56;55.54;99587.90;108283;1253;60444;-71
2023/10/07 11:07:46;;;;;;;9.50;4.00;;;;;;;16.64;54.44;99580.20;108235;1253;60470;-71
2023/10/07 11:10:20;;;;;;;7.40;3.80;;;;;;;16.73;54.39;99579.44;108226;1253;73749;-70
2023/10/07 11:12:52;;;;;;;10.40;3.80;;;;;;;16.79;53.92;99580.02;108219;1253;72482;-71
2023/10/07 11:15:25;;;;;;;9.80;3.50;;;;;;;16.84;53.83;99577.63;108129;1258;72674;-71
2023/10/07 11:17:56;;;;;;;9.40;3.60;;;;;;;16.88;53.80;99570.30;108181;1253;60322;-71
2023/10/07 11:20:24;;;;;;;8.40;4.00;;;;;;;16.92;53.58;99574.61;108279;1253;60210;-71
2023/10/07 11:22:53;;;;;;;7.90;3.70;;;;;;;16.95;53.43;99568.41;108251;1257;72460;-71
2023/10/07 11:25:22;;;;;;;9.50;3.90;;;;;;;16.98;53.14;99560.93;108104;1253;73021;-69
2023/10/07 11:27:49;;;;;;;8.60;4.50;;;;;;;17.02;53.39;99558.79;108079;1253;72685;-70
2023/10/07 11:30:16;;;;;;;8.70;4.00;;;;;;;17.06;53.58;99553.23;108129;1253;60978;-71
2023/10/07 11:32:43;;;;;;;7.00;3.80;;;;;;;17.08;53.18;99551.21;108264;1253;60524;-71
2023/10/07 11:35:19;;;;;;;6.80;3.50;;;;;;;17.15;53.20;99548.39;108141;1258;73652;-69
2023/10/07 11:37:49;;;;;;;7.80;3.90;;;;;;;17.19;52.87;99551.03;108287;1253;71753;-70
2023/10/07 11:40:20;;;;;;;7.00;3.50;;;;;;;17.26;53.09;99545.98;108282;1254;72701;-71
2023/10/07 11:42:47;;;;;;;6.90;3.80;;;;;;;17.31;53.05;99546.81;108281;1253;60163;-68
2023/10/07 11:45:16;;;;;;;7.40;3.70;;;;;;;17.36;52.64;99555.58;108220;1253;60459;-71
2023/10/07 11:47:44;;;;;;;7.80;3.40;;;;;;;17.45;52.51;99537.55;108269;1253;73792;-71
2023/10/07 11:50:12;;;;;;;8.50;3.40;;;;;;;17.55;52.44;99541.71;108276;1253;72753;-71
2023/10/07 11:52:41;;;;;;;8.90;3.10;;;;;;;17.62;52.35;99544.81;108183;1257;73401;-70
2023/10/07 11:55:08;;;;;;;6.00;3.40;;;;;;;17.70;52.53;99554.08;108177;1253;60327;-71
2023/10/07 11:57:37;;;;;;;7.90;3.70;;;;;;;17.78;52.40;99550.52;108200;1253;60308;-70
2023/10/07 12:00:09;;;;;;;11.30;3.50;;;;;;;17.86;52.25;99547.44;108124;1253;73079;-68
2023/10/07 12:02:39;;;;;;;7.70;3.40;;;;;;;17.93;52.02;99545.39;108250;1253;72684;-71
2023/10/07 12:05:07;;;;;;;6.70;3.20;;;;;;;18.03;52.11;99554.23;108226;1253;71196;-71
2023/10/07 12:07:36;;;;;;;8.30;3.10;;;;;;;18.10;52.04;99552.84;108138;1253;60300;-70
2023/10/07 12:10:09;;;;;;;9.10;3.10;;;;;;;18.12;52.17;99565.77;108213;1253;60415;-70
2023/10/07 12:12:36;;;;;;;6.90;3.00;;;;;;;18.12;52.17;99558.27;108216;1253;73854;-71
2023/10/07 12:15:07;;;;;;;7.70;3.10;;;;;;;18.14;52.25;99561.81;108171;1253;72514;-70
2023/10/07 12:17:35;;;;;;;7.90;3.40;;;;;;;18.17;52.56;99554.42;108249;1253;72518;-69
2023/10/07 12:20:02;;;;;;;6.10;2.90;;;;;;;18.16;52.46;99549.74;108266;1253;60465;-70
2023/10/07 12:22:29;;;;;;;10.10;3.00;;;;;;;18.16;52.58;99543.11;108158;1253;60422;-70
2023/10/07 12:24:58;;;;;;;8.40;2.80;;;;;;;18.18;52.83;99543.79;108197;1253;73847;-70
2023/10/07 12:27:26;;;;;;;9.40;2.60;;;;;;;18.17;53.34;99544.61;108260;1253;72388;-72
2023/10/07 12:29:53;;;;;;;7.30;2.70;;;;;;;18.14;53.81;99535.95;108133;1257;72449;-69
2023/10/07 12:32:21;;;;;;;8.40;3.00;;;;;;;18.10;53.87;99539.34;108206;1253;62224;-68
2023/10/07 12:34:48;;;;;;;8.60;2.90;;;;;;;18.08;53.84;99537.41;108205;1258;60427;-70
2023/10/07 12:37:15;;;;;;;7.40;2.50;;;;;;;18.11;54.02;99534.17;108265;1253;73851;-70